Current | Forecast
Updated: 12:30 AM EET on November 22, 2017
Observed at Krivvy Rih, Ukraine
Temperature 1°C
Windchill -2°C
Humidity 75%
Dew Point -3°C
Wind WNW at 11 km/h
Pressure 1011 hPa (Steady)
Conditions Overcast
Visibility 10.0 kilometers
UV 0 out of 16
Clouds Overcast (OVC) : 1280 m
Yesterday's Maximum 3°C
Yesterday's Minimum 0°C approx.
Yesterday's Heating Degree Days 30 approx.
Sunrise7:07 AM EET
Sunset3:59 PM EET
Moon Rise10:12 AM EET
Moon Set7:12 PM EET
Moon PhaseMoon Phase
Waxing Crescent
Raw METARMETAR UKDR 212230Z 29003MPS 9999 OVC042 01/M03 Q1011 R36/09//70 NOSIG


Monday
. High: 55° F.
Tuesday
. High: 60° F.
Wednesday
. High: 62° F.
Thursday
. High: 66° F.
Friday
. High: 59° F.
Saturday
. High: 57° F.
Sunday
. High: 62° F.
Monday
. High: 64° F.

Units: English | Metric

Find the Weather for any City, State or Zipcode, or Country:

U.S. State List | Severe Weather | Tropical Storms | Ski Conditions
United States | Canada | Central America | South America | Asia | Europe | Australia | Africa | Islands

Weather Underground

© Copyright 2017
The Weather Company, LLC